sensor_id;sensor_type;location;lat;lon;timestamp;P1;durP1;ratioP1;P2;durP2;ratioP2
8102;SDS011;4094;49.948;11.574;2023-01-29T00:00:38;14.20;;;13.00;;
8102;SDS011;4094;49.948;11.574;2023-01-29T00:03:07;13.93;;;13.03;;
8102;SDS011;4094;49.948;11.574;2023-01-29T00:05:36;13.87;;;12.97;;
8102;SDS011;4094;49.948;11.574;2023-01-29T00:08:05;13.30;;;12.50;;
8102;SDS011;4094;49.948;11.574;2023-01-29T00:10:34;13.70;;;12.80;;
8102;SDS011;4094;49.948;11.574;2023-01-29T00:13:05;13.03;;;12.17;;
8102;SDS011;4094;49.948;11.574;2023-01-29T00:15:34;14.27;;;13.27;;
8102;SDS011;4094;49.948;11.574;2023-01-29T00:18:03;14.00;;;13.10;;
8102;SDS011;4094;49.948;11.574;2023-01-29T00:20:32;13.60;;;12.70;;
8102;SDS011;4094;49.948;11.574;2023-01-29T00:23:01;13.70;;;12.80;;
8102;SDS011;4094;49.948;11.574;2023-01-29T00:25:30;15.03;;;13.73;;
8102;SDS011;4094;49.948;11.574;2023-01-29T00:27:59;14.00;;;13.00;;
8102;SDS011;4094;49.948;11.574;2023-01-29T00:30:30;13.93;;;13.03;;
8102;SDS011;4094;49.948;11.574;2023-01-29T00:32:59;14.37;;;13.37;;
8102;SDS011;4094;49.948;11.574;2023-01-29T00:35:28;13.50;;;12.70;;
8102;SDS011;4094;49.948;11.574;2023-01-29T00:37:57;13.97;;;12.93;;
8102;SDS011;4094;49.948;11.574;2023-01-29T00:40:27;14.33;;;13.33;;
8102;SDS011;4094;49.948;11.574;2023-01-29T00:43:16;14.23;;;13.13;;
8102;SDS011;4094;49.948;11.574;2023-01-29T00:46:03;13.23;;;12.30;;
8102;SDS011;4094;49.948;11.574;2023-01-29T00:48:34;13.30;;;12.47;;
8102;SDS011;4094;49.948;11.574;2023-01-29T00:51:03;13.80;;;12.90;;
8102;SDS011;4094;49.948;11.574;2023-01-29T00:53:32;14.40;;;13.40;;
8102;SDS011;4094;49.948;11.574;2023-01-29T00:56:02;14.33;;;13.33;;
8102;SDS011;4094;49.948;11.574;2023-01-29T00:58:32;14.60;;;13.60;;
8102;SDS011;4094;49.948;11.574;2023-01-29T01:01:01;14.33;;;13.33;;
8102;SDS011;4094;49.948;11.574;2023-01-29T01:03:31;14.33;;;13.33;;
8102;SDS011;4094;49.948;11.574;2023-01-29T01:06:02;14.63;;;13.63;;
8102;SDS011;4094;49.948;11.574;2023-01-29T01:08:32;14.47;;;13.47;;
8102;SDS011;4094;49.948;11.574;2023-01-29T01:11:19;14.63;;;13.73;;
8102;SDS011;4094;49.948;11.574;2023-01-29T01:13:49;14.87;;;13.87;;
8102;SDS011;4094;49.948;11.574;2023-01-29T01:16:19;14.27;;;13.47;;
8102;SDS011;4094;49.948;11.574;2023-01-29T01:18:49;13.80;;;12.80;;
8102;SDS011;4094;49.948;11.574;2023-01-29T01:21:18;14.57;;;13.67;;
8102;SDS011;4094;49.948;11.574;2023-01-29T01:23:47;14.40;;;13.40;;
8102;SDS011;4094;49.948;11.574;2023-01-29T01:26:18;14.87;;;13.60;;
8102;SDS011;4094;49.948;11.574;2023-01-29T01:28:47;13.50;;;12.60;;
8102;SDS011;4094;49.948;11.574;2023-01-29T01:31:16;14.20;;;13.10;;
8102;SDS011;4094;49.948;11.574;2023-01-29T01:33:45;13.67;;;12.77;;
8102;SDS011;4094;49.948;11.574;2023-01-29T01:36:16;13.73;;;12.90;;
8102;SDS011;4094;49.948;11.574;2023-01-29T01:38:45;14.20;;;13.27;;
8102;SDS011;4094;49.948;11.574;2023-01-29T01:41:14;14.10;;;13.10;;
8102;SDS011;4094;49.948;11.574;2023-01-29T01:43:46;14.07;;;13.03;;
8102;SDS011;4094;49.948;11.574;2023-01-29T01:46:17;14.73;;;13.73;;
8102;SDS011;4094;49.948;11.574;2023-01-29T01:48:48;14.43;;;13.47;;
8102;SDS011;4094;49.948;11.574;2023-01-29T01:51:23;14.60;;;13.50;;
8102;SDS011;4094;49.948;11.574;2023-01-29T01:53:56;14.03;;;12.97;;
8102;SDS011;4094;49.948;11.574;2023-01-29T01:56:31;14.10;;;13.20;;
8102;SDS011;4094;49.948;11.574;2023-01-29T01:59:08;14.47;;;13.37;;
8102;SDS011;4094;49.948;11.574;2023-01-29T02:01:41;14.13;;;13.13;;
8102;SDS011;4094;49.948;11.574;2023-01-29T02:04:16;14.60;;;13.47;;
8102;SDS011;4094;49.948;11.574;2023-01-29T02:07:08;13.90;;;12.90;;
8102;SDS011;4094;49.948;11.574;2023-01-29T02:09:59;14.47;;;13.37;;
8102;SDS011;4094;49.948;11.574;2023-01-29T02:12:33;14.17;;;13.10;;
8102;SDS011;4094;49.948;11.574;2023-01-29T02:15:04;14.53;;;13.43;;
8102;SDS011;4094;49.948;11.574;2023-01-29T02:17:35;14.57;;;13.50;;
8102;SDS011;4094;49.948;11.574;2023-01-29T02:20:09;14.77;;;13.67;;
8102;SDS011;4094;49.948;11.574;2023-01-29T02:22:58;14.73;;;13.63;;
8102;SDS011;4094;49.948;11.574;2023-01-29T02:28:39;14.40;;;13.40;;
8102;SDS011;4094;49.948;11.574;2023-01-29T02:31:16;15.50;;;14.40;;
8102;SDS011;4094;49.948;11.574;2023-01-29T02:33:55;15.57;;;14.27;;
8102;SDS011;4094;49.948;11.574;2023-01-29T02:36:34;14.83;;;13.73;;
8102;SDS011;4094;49.948;11.574;2023-01-29T02:39:11;14.00;;;13.00;;
8102;SDS011;4094;49.948;11.574;2023-01-29T02:41:45;14.93;;;13.77;;
8102;SDS011;4094;49.948;11.574;2023-01-29T02:44:26;14.20;;;13.20;;
8102;SDS011;4094;49.948;11.574;2023-01-29T02:47:03;14.67;;;13.57;;
8102;SDS011;4094;49.948;11.574;2023-01-29T02:49:40;14.13;;;13.23;;
8102;SDS011;4094;49.948;11.574;2023-01-29T02:52:17;15.13;;;14.10;;
8102;SDS011;4094;49.948;11.574;2023-01-29T02:54:51;14.43;;;13.43;;
8102;SDS011;4094;49.948;11.574;2023-01-29T02:57:30;15.20;;;14.10;;
8102;SDS011;4094;49.948;11.574;2023-01-29T03:00:05;14.23;;;13.23;;
8102;SDS011;4094;49.948;11.574;2023-01-29T03:02:40;13.90;;;12.90;;
8102;SDS011;4094;49.948;11.574;2023-01-29T03:05:15;14.87;;;13.77;;
8102;SDS011;4094;49.948;11.574;2023-01-29T03:07:51;13.40;;;12.50;;
8102;SDS011;4094;49.948;11.574;2023-01-29T03:10:32;14.27;;;13.27;;
8102;SDS011;4094;49.948;11.574;2023-01-29T03:13:05;14.13;;;13.10;;
8102;SDS011;4094;49.948;11.574;2023-01-29T03:15:46;14.47;;;13.47;;
8102;SDS011;4094;49.948;11.574;2023-01-29T03:18:39;14.93;;;13.83;;
8102;SDS011;4094;49.948;11.574;2023-01-29T03:21:13;14.37;;;13.37;;
8102;SDS011;4094;49.948;11.574;2023-01-29T03:24:05;13.70;;;12.80;;
8102;SDS011;4094;49.948;11.574;2023-01-29T03:26:57;13.80;;;12.90;;
8102;SDS011;4094;49.948;11.574;2023-01-29T03:29:49;14.40;;;13.30;;
8102;SDS011;4094;49.948;11.574;2023-01-29T03:32:48;14.23;;;13.03;;
8102;SDS011;4094;49.948;11.574;2023-01-29T03:35:20;14.47;;;13.53;;
8102;SDS011;4094;49.948;11.574;2023-01-29T03:38:02;14.30;;;13.40;;
8102;SDS011;4094;49.948;11.574;2023-01-29T03:40:34;14.73;;;13.70;;
8102;SDS011;4094;49.948;11.574;2023-01-29T03:43:10;13.63;;;12.73;;
8102;SDS011;4094;49.948;11.574;2023-01-29T03:45:48;14.77;;;13.77;;
8102;SDS011;4094;49.948;11.574;2023-01-29T03:48:30;14.60;;;13.40;;
8102;SDS011;4094;49.948;11.574;2023-01-29T03:51:07;14.80;;;13.70;;
8102;SDS011;4094;49.948;11.574;2023-01-29T03:53:46;14.77;;;13.77;;
8102;SDS011;4094;49.948;11.574;2023-01-29T03:56:26;14.47;;;13.47;;
8102;SDS011;4094;49.948;11.574;2023-01-29T03:59:08;15.07;;;13.87;;
8102;SDS011;4094;49.948;11.574;2023-01-29T04:02:14;14.70;;;13.63;;
8102;SDS011;4094;49.948;11.574;2023-01-29T04:04:58;14.40;;;13.40;;
8102;SDS011;4094;49.948;11.574;2023-01-29T04:07:34;14.53;;;13.53;;
8102;SDS011;4094;49.948;11.574;2023-01-29T04:10:08;14.07;;;13.07;;
8102;SDS011;4094;49.948;11.574;2023-01-29T04:12:41;14.50;;;13.40;;
8102;SDS011;4094;49.948;11.574;2023-01-29T04:15:14;15.20;;;14.07;;
8102;SDS011;4094;49.948;11.574;2023-01-29T04:17:46;15.23;;;14.23;;
8102;SDS011;4094;49.948;11.574;2023-01-29T04:20:29;14.97;;;13.97;;
8102;SDS011;4094;49.948;11.574;2023-01-29T04:22:59;14.87;;;13.80;;
8102;SDS011;4094;49.948;11.574;2023-01-29T04:25:30;14.17;;;13.07;;
8102;SDS011;4094;49.948;11.574;2023-01-29T04:28:12;13.47;;;12.57;;
8102;SDS011;4094;49.948;11.574;2023-01-29T04:30:49;14.20;;;13.20;;
8102;SDS011;4094;49.948;11.574;2023-01-29T04:33:27;14.10;;;13.20;;
8102;SDS011;4094;49.948;11.574;2023-01-29T04:36:05;14.50;;;13.40;;
8102;SDS011;4094;49.948;11.574;2023-01-29T04:38:46;14.47;;;13.47;;
8102;SDS011;4094;49.948;11.574;2023-01-29T04:41:25;14.27;;;13.17;;
8102;SDS011;4094;49.948;11.574;2023-01-29T04:44:01;14.63;;;13.53;;
8102;SDS011;4094;49.948;11.574;2023-01-29T04:46:38;14.07;;;13.13;;
8102;SDS011;4094;49.948;11.574;2023-01-29T04:49:15;14.73;;;13.73;;
8102;SDS011;4094;49.948;11.574;2023-01-29T04:51:54;15.07;;;13.97;;
8102;SDS011;4094;49.948;11.574;2023-01-29T04:54:32;15.60;;;14.50;;
8102;SDS011;4094;49.948;11.574;2023-01-29T04:57:11;15.23;;;14.03;;
8102;SDS011;4094;49.948;11.574;2023-01-29T04:59:46;18.10;;;16.57;;
8102;SDS011;4094;49.948;11.574;2023-01-29T05:02:18;15.67;;;14.47;;
8102;SDS011;4094;49.948;11.574;2023-01-29T05:04:51;14.73;;;13.73;;
8102;SDS011;4094;49.948;11.574;2023-01-29T05:07:23;14.83;;;13.73;;
8102;SDS011;4094;49.948;11.574;2023-01-29T05:09:54;14.33;;;13.33;;
8102;SDS011;4094;49.948;11.574;2023-01-29T05:12:23;14.10;;;13.17;;
8102;SDS011;4094;49.948;11.574;2023-01-29T05:14:54;14.20;;;13.20;;
8102;SDS011;4094;49.948;11.574;2023-01-29T05:17:28;14.27;;;13.27;;
8102;SDS011;4094;49.948;11.574;2023-01-29T05:19:57;14.30;;;13.30;;
8102;SDS011;4094;49.948;11.574;2023-01-29T05:22:27;13.93;;;13.03;;
8102;SDS011;4094;49.948;11.574;2023-01-29T05:24:57;14.67;;;13.57;;
8102;SDS011;4094;49.948;11.574;2023-01-29T05:27:28;14.77;;;13.73;;
8102;SDS011;4094;49.948;11.574;2023-01-29T05:30:18;14.17;;;13.17;;
8102;SDS011;4094;49.948;11.574;2023-01-29T05:32:47;14.50;;;13.50;;
8102;SDS011;4094;49.948;11.574;2023-01-29T05:35:16;14.63;;;13.43;;
8102;SDS011;4094;49.948;11.574;2023-01-29T05:37:46;14.10;;;13.10;;
8102;SDS011;4094;49.948;11.574;2023-01-29T05:40:15;13.93;;;12.93;;
8102;SDS011;4094;49.948;11.574;2023-01-29T05:42:45;14.60;;;13.43;;
8102;SDS011;4094;49.948;11.574;2023-01-29T05:45:14;14.47;;;13.47;;
8102;SDS011;4094;49.948;11.574;2023-01-29T05:47:44;14.50;;;13.50;;
8102;SDS011;4094;49.948;11.574;2023-01-29T05:50:14;13.60;;;12.80;;
8102;SDS011;4094;49.948;11.574;2023-01-29T05:52:44;14.40;;;13.30;;
8102;SDS011;4094;49.948;11.574;2023-01-29T05:55:14;14.80;;;13.80;;
8102;SDS011;4094;49.948;11.574;2023-01-29T05:57:43;14.20;;;13.13;;
8102;SDS011;4094;49.948;11.574;2023-01-29T06:00:13;13.90;;;12.90;;
8102;SDS011;4094;49.948;11.574;2023-01-29T06:02:43;14.17;;;13.27;;
8102;SDS011;4094;49.948;11.574;2023-01-29T06:05:12;14.73;;;13.73;;
8102;SDS011;4094;49.948;11.574;2023-01-29T06:07:42;15.30;;;14.20;;
8102;SDS011;4094;49.948;11.574;2023-01-29T06:10:12;14.47;;;13.47;;
8102;SDS011;4094;49.948;11.574;2023-01-29T06:12:45;15.00;;;13.80;;
8102;SDS011;4094;49.948;11.574;2023-01-29T06:15:14;14.97;;;13.97;;
8102;SDS011;4094;49.948;11.574;2023-01-29T06:17:43;14.47;;;13.47;;
8102;SDS011;4094;49.948;11.574;2023-01-29T06:20:12;13.33;;;12.53;;
8102;SDS011;4094;49.948;11.574;2023-01-29T06:22:41;14.00;;;13.00;;
8102;SDS011;4094;49.948;11.574;2023-01-29T06:25:11;14.13;;;13.27;;
8102;SDS011;4094;49.948;11.574;2023-01-29T06:27:41;14.07;;;13.07;;
8102;SDS011;4094;49.948;11.574;2023-01-29T06:30:11;14.73;;;13.63;;
8102;SDS011;4094;49.948;11.574;2023-01-29T06:32:40;14.57;;;13.67;;
8102;SDS011;4094;49.948;11.574;2023-01-29T06:35:10;14.30;;;13.40;;
8102;SDS011;4094;49.948;11.574;2023-01-29T06:37:39;14.37;;;13.37;;
8102;SDS011;4094;49.948;11.574;2023-01-29T06:40:08;14.23;;;13.33;;
8102;SDS011;4094;49.948;11.574;2023-01-29T06:42:38;14.07;;;13.13;;
8102;SDS011;4094;49.948;11.574;2023-01-29T06:45:09;15.17;;;14.07;;
8102;SDS011;4094;49.948;11.574;2023-01-29T06:47:38;14.63;;;13.63;;
8102;SDS011;4094;49.948;11.574;2023-01-29T06:50:08;14.63;;;13.63;;
8102;SDS011;4094;49.948;11.574;2023-01-29T06:52:38;15.03;;;14.03;;
8102;SDS011;4094;49.948;11.574;2023-01-29T06:55:07;14.60;;;13.63;;
8102;SDS011;4094;49.948;11.574;2023-01-29T06:57:36;14.87;;;13.87;;
8102;SDS011;4094;49.948;11.574;2023-01-29T07:00:06;14.63;;;13.63;;
8102;SDS011;4094;49.948;11.574;2023-01-29T07:02:38;14.17;;;13.27;;
8102;SDS011;4094;49.948;11.574;2023-01-29T07:05:07;14.57;;;13.60;;
8102;SDS011;4094;49.948;11.574;2023-01-29T07:07:36;14.53;;;13.50;;
8102;SDS011;4094;49.948;11.574;2023-01-29T07:10:05;14.57;;;13.53;;
8102;SDS011;4094;49.948;11.574;2023-01-29T07:12:34;14.97;;;13.97;;
8102;SDS011;4094;49.948;11.574;2023-01-29T07:15:04;15.07;;;13.97;;
8102;SDS011;4094;49.948;11.574;2023-01-29T07:17:34;14.90;;;13.80;;
8102;SDS011;4094;49.948;11.574;2023-01-29T07:20:05;14.73;;;13.77;;
8102;SDS011;4094;49.948;11.574;2023-01-29T07:22:34;15.03;;;13.90;;
8102;SDS011;4094;49.948;11.574;2023-01-29T07:25:04;13.50;;;12.60;;
8102;SDS011;4094;49.948;11.574;2023-01-29T07:27:34;14.63;;;13.63;;
8102;SDS011;4094;49.948;11.574;2023-01-29T07:30:03;13.57;;;12.70;;
8102;SDS011;4094;49.948;11.574;2023-01-29T07:32:33;14.17;;;13.27;;
8102;SDS011;4094;49.948;11.574;2023-01-29T07:35:02;14.70;;;13.70;;
8102;SDS011;4094;49.948;11.574;2023-01-29T07:37:33;14.10;;;13.20;;
8102;SDS011;4094;49.948;11.574;2023-01-29T07:40:02;14.33;;;13.43;;
8102;SDS011;4094;49.948;11.574;2023-01-29T07:42:37;14.57;;;13.50;;
8102;SDS011;4094;49.948;11.574;2023-01-29T07:45:08;14.40;;;13.40;;
8102;SDS011;4094;49.948;11.574;2023-01-29T07:47:38;14.63;;;13.63;;
8102;SDS011;4094;49.948;11.574;2023-01-29T07:50:08;15.40;;;14.17;;
8102;SDS011;4094;49.948;11.574;2023-01-29T07:52:40;14.50;;;13.60;;
8102;SDS011;4094;49.948;11.574;2023-01-29T07:55:09;15.07;;;14.07;;
8102;SDS011;4094;49.948;11.574;2023-01-29T07:57:39;15.17;;;14.27;;
8102;SDS011;4094;49.948;11.574;2023-01-29T08:00:08;15.93;;;14.83;;
8102;SDS011;4094;49.948;11.574;2023-01-29T08:02:39;14.53;;;13.53;;
8102;SDS011;4094;49.948;11.574;2023-01-29T08:05:09;14.43;;;13.37;;
8102;SDS011;4094;49.948;11.574;2023-01-29T08:07:38;14.60;;;13.60;;
8102;SDS011;4094;49.948;11.574;2023-01-29T08:10:10;14.83;;;13.93;;
8102;SDS011;4094;49.948;11.574;2023-01-29T08:12:39;13.97;;;13.17;;
8102;SDS011;4094;49.948;11.574;2023-01-29T08:15:09;14.03;;;13.13;;
8102;SDS011;4094;49.948;11.574;2023-01-29T08:17:38;14.03;;;13.13;;
8102;SDS011;4094;49.948;11.574;2023-01-29T08:20:26;14.23;;;13.33;;
8102;SDS011;4094;49.948;11.574;2023-01-29T08:22:59;14.07;;;13.10;;
8102;SDS011;4094;49.948;11.574;2023-01-29T08:25:30;14.70;;;13.77;;
8102;SDS011;4094;49.948;11.574;2023-01-29T08:28:01;13.60;;;12.80;;
8102;SDS011;4094;49.948;11.574;2023-01-29T08:30:31;14.10;;;13.10;;
8102;SDS011;4094;49.948;11.574;2023-01-29T08:33:02;13.50;;;12.70;;
8102;SDS011;4094;49.948;11.574;2023-01-29T08:35:32;13.47;;;12.67;;
8102;SDS011;4094;49.948;11.574;2023-01-29T08:38:02;13.60;;;12.80;;
8102;SDS011;4094;49.948;11.574;2023-01-29T08:40:34;12.93;;;12.20;;
8102;SDS011;4094;49.948;11.574;2023-01-29T08:43:04;13.63;;;12.83;;
8102;SDS011;4094;49.948;11.574;2023-01-29T08:45:36;14.27;;;13.37;;
8102;SDS011;4094;49.948;11.574;2023-01-29T08:48:09;14.13;;;13.13;;
8102;SDS011;4094;49.948;11.574;2023-01-29T08:50:38;13.13;;;12.33;;
8102;SDS011;4094;49.948;11.574;2023-01-29T08:53:07;13.43;;;12.60;;
8102;SDS011;4094;49.948;11.574;2023-01-29T08:55:39;13.40;;;12.50;;
8102;SDS011;4094;49.948;11.574;2023-01-29T08:58:09;13.00;;;12.20;;
8102;SDS011;4094;49.948;11.574;2023-01-29T09:00:39;13.57;;;12.77;;
8102;SDS011;4094;49.948;11.574;2023-01-29T09:03:09;12.70;;;12.00;;
8102;SDS011;4094;49.948;11.574;2023-01-29T09:05:38;13.23;;;12.33;;
8102;SDS011;4094;49.948;11.574;2023-01-29T09:08:08;12.90;;;12.20;;
8102;SDS011;4094;49.948;11.574;2023-01-29T09:10:38;13.17;;;12.37;;
8102;SDS011;4094;49.948;11.574;2023-01-29T09:13:08;12.87;;;12.17;;
8102;SDS011;4094;49.948;11.574;2023-01-29T09:15:37;12.90;;;12.10;;
8102;SDS011;4094;49.948;11.574;2023-01-29T09:18:06;12.60;;;11.90;;
8102;SDS011;4094;49.948;11.574;2023-01-29T09:20:35;12.53;;;11.83;;
8102;SDS011;4094;49.948;11.574;2023-01-29T09:23:05;13.17;;;12.27;;
8102;SDS011;4094;49.948;11.574;2023-01-29T09:25:36;13.00;;;12.20;;
8102;SDS011;4094;49.948;11.574;2023-01-29T09:28:06;13.47;;;12.67;;
8102;SDS011;4094;49.948;11.574;2023-01-29T09:30:35;13.00;;;12.20;;
8102;SDS011;4094;49.948;11.574;2023-01-29T09:33:05;13.13;;;12.33;;
8102;SDS011;4094;49.948;11.574;2023-01-29T09:35:34;13.07;;;12.27;;
8102;SDS011;4094;49.948;11.574;2023-01-29T09:38:03;13.03;;;12.23;;
8102;SDS011;4094;49.948;11.574;2023-01-29T09:40:34;14.33;;;13.50;;
8102;SDS011;4094;49.948;11.574;2023-01-29T09:43:15;13.83;;;12.93;;
8102;SDS011;4094;49.948;11.574;2023-01-29T09:45:49;12.73;;;12.03;;
8102;SDS011;4094;49.948;11.574;2023-01-29T09:48:22;13.90;;;13.00;;
8102;SDS011;4094;49.948;11.574;2023-01-29T09:50:55;13.07;;;12.27;;
8102;SDS011;4094;49.948;11.574;2023-01-29T09:53:28;13.20;;;12.37;;
8102;SDS011;4094;49.948;11.574;2023-01-29T09:56:03;13.70;;;12.83;;
8102;SDS011;4094;49.948;11.574;2023-01-29T09:58:35;13.50;;;12.60;;
8102;SDS011;4094;49.948;11.574;2023-01-29T10:01:09;12.93;;;12.13;;
8102;SDS011;4094;49.948;11.574;2023-01-29T10:03:54;13.40;;;12.40;;
8102;SDS011;4094;49.948;11.574;2023-01-29T10:06:47;13.47;;;12.47;;
8102;SDS011;4094;49.948;11.574;2023-01-29T10:09:39;13.80;;;12.90;;
8102;SDS011;4094;49.948;11.574;2023-01-29T10:12:21;13.83;;;12.83;;
8102;SDS011;4094;49.948;11.574;2023-01-29T10:15:01;13.90;;;13.00;;
8102;SDS011;4094;49.948;11.574;2023-01-29T10:17:48;14.57;;;13.57;;
8102;SDS011;4094;49.948;11.574;2023-01-29T10:20:35;14.43;;;13.43;;
8102;SDS011;4094;49.948;11.574;2023-01-29T10:23:15;13.37;;;12.57;;
8102;SDS011;4094;49.948;11.574;2023-01-29T10:25:49;13.83;;;13.03;;
8102;SDS011;4094;49.948;11.574;2023-01-29T10:28:20;13.47;;;12.67;;
8102;SDS011;4094;49.948;11.574;2023-01-29T10:30:56;13.53;;;12.63;;
8102;SDS011;4094;49.948;11.574;2023-01-29T10:33:32;14.37;;;13.37;;
8102;SDS011;4094;49.948;11.574;2023-01-29T10:36:27;14.10;;;13.20;;
8102;SDS011;4094;49.948;11.574;2023-01-29T10:39:01;14.00;;;13.10;;
8102;SDS011;4094;49.948;11.574;2023-01-29T10:41:37;13.70;;;12.90;;
8102;SDS011;4094;49.948;11.574;2023-01-29T10:44:24;13.77;;;12.87;;
8102;SDS011;4094;49.948;11.574;2023-01-29T10:50:03;13.77;;;12.87;;
8102;SDS011;4094;49.948;11.574;2023-01-29T10:52:48;13.10;;;12.40;;
8102;SDS011;4094;49.948;11.574;2023-01-29T10:55:31;13.70;;;12.90;;
8102;SDS011;4094;49.948;11.574;2023-01-29T10:58:10;13.47;;;12.67;;
8102;SDS011;4094;49.948;11.574;2023-01-29T11:00:47;14.00;;;13.10;;
8102;SDS011;4094;49.948;11.574;2023-01-29T11:03:20;13.97;;;13.07;;
8102;SDS011;4094;49.948;11.574;2023-01-29T11:05:57;13.87;;;13.07;;
8102;SDS011;4094;49.948;11.574;2023-01-29T11:08:37;14.17;;;13.27;;
8102;SDS011;4094;49.948;11.574;2023-01-29T11:11:12;13.77;;;12.93;;
8102;SDS011;4094;49.948;11.574;2023-01-29T11:13:44;13.13;;;12.23;;
8102;SDS011;4094;49.948;11.574;2023-01-29T11:16:17;14.27;;;13.33;;
8102;SDS011;4094;49.948;11.574;2023-01-29T11:18:54;13.87;;;12.83;;
8102;SDS011;4094;49.948;11.574;2023-01-29T11:21:24;13.93;;;13.07;;
8102;SDS011;4094;49.948;11.574;2023-01-29T11:24:06;13.40;;;12.60;;
8102;SDS011;4094;49.948;11.574;2023-01-29T11:26:39;14.10;;;13.20;;
8102;SDS011;4094;49.948;11.574;2023-01-29T11:32:02;13.87;;;12.97;;
8102;SDS011;4094;49.948;11.574;2023-01-29T11:34:35;14.07;;;13.10;;
8102;SDS011;4094;49.948;11.574;2023-01-29T11:37:30;13.33;;;12.43;;
8102;SDS011;4094;49.948;11.574;2023-01-29T11:40:04;14.20;;;13.20;;
8102;SDS011;4094;49.948;11.574;2023-01-29T11:43:10;13.50;;;12.60;;
8102;SDS011;4094;49.948;11.574;2023-01-29T11:45:45;14.17;;;13.17;;
8102;SDS011;4094;49.948;11.574;2023-01-29T11:48:17;14.23;;;13.33;;
8102;SDS011;4094;49.948;11.574;2023-01-29T11:50:53;13.97;;;13.07;;
8102;SDS011;4094;49.948;11.574;2023-01-29T11:53:32;14.00;;;13.00;;
8102;SDS011;4094;49.948;11.574;2023-01-29T11:56:05;15.03;;;14.03;;
8102;SDS011;4094;49.948;11.574;2023-01-29T11:58:44;14.43;;;13.43;;
8102;SDS011;4094;49.948;11.574;2023-01-29T12:01:16;14.67;;;13.77;;
8102;SDS011;4094;49.948;11.574;2023-01-29T12:03:51;15.23;;;14.23;;
8102;SDS011;4094;49.948;11.574;2023-01-29T12:06:24;15.13;;;14.10;;
8102;SDS011;4094;49.948;11.574;2023-01-29T12:09:02;14.27;;;13.23;;
8102;SDS011;4094;49.948;11.574;2023-01-29T12:11:37;13.80;;;12.93;;
8102;SDS011;4094;49.948;11.574;2023-01-29T12:14:19;14.07;;;13.10;;
8102;SDS011;4094;49.948;11.574;2023-01-29T12:16:55;14.30;;;13.07;;
8102;SDS011;4094;49.948;11.574;2023-01-29T12:19:27;14.73;;;13.73;;
8102;SDS011;4094;49.948;11.574;2023-01-29T12:22:03;13.30;;;12.50;;
8102;SDS011;4094;49.948;11.574;2023-01-29T12:24:39;12.97;;;12.27;;
8102;SDS011;4094;49.948;11.574;2023-01-29T12:27:13;13.30;;;12.40;;
8102;SDS011;4094;49.948;11.574;2023-01-29T12:29:48;13.03;;;12.23;;
8102;SDS011;4094;49.948;11.574;2023-01-29T12:32:26;12.90;;;12.00;;
8102;SDS011;4094;49.948;11.574;2023-01-29T12:35:00;13.23;;;12.43;;
8102;SDS011;4094;49.948;11.574;2023-01-29T12:37:37;12.83;;;12.03;;
8102;SDS011;4094;49.948;11.574;2023-01-29T12:40:12;13.60;;;12.70;;
8102;SDS011;4094;49.948;11.574;2023-01-29T12:42:45;12.73;;;11.93;;
8102;SDS011;4094;49.948;11.574;2023-01-29T12:45:17;13.07;;;12.20;;
8102;SDS011;4094;49.948;11.574;2023-01-29T12:47:49;12.87;;;12.00;;
8102;SDS011;4094;49.948;11.574;2023-01-29T12:50:21;13.23;;;12.37;;
8102;SDS011;4094;49.948;11.574;2023-01-29T12:52:57;13.37;;;12.47;;
8102;SDS011;4094;49.948;11.574;2023-01-29T12:55:31;13.63;;;12.73;;
8102;SDS011;4094;49.948;11.574;2023-01-29T12:58:08;13.33;;;12.53;;
8102;SDS011;4094;49.948;11.574;2023-01-29T13:00:41;13.20;;;12.20;;
8102;SDS011;4094;49.948;11.574;2023-01-29T13:03:13;13.53;;;12.63;;
8102;SDS011;4094;49.948;11.574;2023-01-29T13:05:49;13.57;;;12.67;;
8102;SDS011;4094;49.948;11.574;2023-01-29T13:08:22;14.30;;;13.40;;
8102;SDS011;4094;49.948;11.574;2023-01-29T13:10:56;14.23;;;13.17;;
8102;SDS011;4094;49.948;11.574;2023-01-29T13:13:29;14.27;;;13.37;;
8102;SDS011;4094;49.948;11.574;2023-01-29T13:16:03;14.00;;;13.03;;
8102;SDS011;4094;49.948;11.574;2023-01-29T13:18:36;13.53;;;12.73;;
8102;SDS011;4094;49.948;11.574;2023-01-29T13:21:14;13.97;;;13.10;;
8102;SDS011;4094;49.948;11.574;2023-01-29T13:23:47;13.83;;;12.93;;
8102;SDS011;4094;49.948;11.574;2023-01-29T13:26:19;13.33;;;12.53;;
8102;SDS011;4094;49.948;11.574;2023-01-29T13:28:49;13.57;;;12.70;;
8102;SDS011;4094;49.948;11.574;2023-01-29T13:31:22;14.17;;;13.27;;
8102;SDS011;4094;49.948;11.574;2023-01-29T13:33:58;13.83;;;13.03;;
8102;SDS011;4094;49.948;11.574;2023-01-29T13:36:32;13.57;;;12.67;;
8102;SDS011;4094;49.948;11.574;2023-01-29T13:39:06;13.23;;;12.43;;
8102;SDS011;4094;49.948;11.574;2023-01-29T13:41:43;14.43;;;13.43;;
8102;SDS011;4094;49.948;11.574;2023-01-29T13:44:19;13.10;;;12.10;;
8102;SDS011;4094;49.948;11.574;2023-01-29T13:46:53;12.80;;;12.00;;
8102;SDS011;4094;49.948;11.574;2023-01-29T13:49:26;13.40;;;12.50;;
8102;SDS011;4094;49.948;11.574;2023-01-29T13:52:27;12.93;;;12.10;;
8102;SDS011;4094;49.948;11.574;2023-01-29T13:55:03;13.50;;;12.50;;
8102;SDS011;4094;49.948;11.574;2023-01-29T13:57:48;13.47;;;12.57;;
8102;SDS011;4094;49.948;11.574;2023-01-29T14:06:42;13.60;;;12.57;;
8102;SDS011;4094;49.948;11.574;2023-01-29T14:12:33;13.53;;;12.67;;
8102;SDS011;4094;49.948;11.574;2023-01-29T14:15:17;13.80;;;12.90;;
8102;SDS011;4094;49.948;11.574;2023-01-29T14:20:53;13.80;;;12.83;;
8102;SDS011;4094;49.948;11.574;2023-01-29T14:26:27;14.00;;;13.10;;
8102;SDS011;4094;49.948;11.574;2023-01-29T14:29:02;13.87;;;12.87;;
8102;SDS011;4094;49.948;11.574;2023-01-29T14:31:41;13.93;;;13.03;;
8102;SDS011;4094;49.948;11.574;2023-01-29T14:36:59;14.43;;;13.33;;
8102;SDS011;4094;49.948;11.574;2023-01-29T14:39:32;14.57;;;13.60;;
8102;SDS011;4094;49.948;11.574;2023-01-29T14:42:05;13.47;;;12.57;;
8102;SDS011;4094;49.948;11.574;2023-01-29T14:44:47;14.40;;;13.40;;
8102;SDS011;4094;49.948;11.574;2023-01-29T14:47:57;14.50;;;13.60;;
8102;SDS011;4094;49.948;11.574;2023-01-29T14:53:50;16.20;;;14.93;;
8102;SDS011;4094;49.948;11.574;2023-01-29T14:56:27;14.90;;;13.80;;
8102;SDS011;4094;49.948;11.574;2023-01-29T14:59:03;14.77;;;13.77;;
8102;SDS011;4094;49.948;11.574;2023-01-29T15:01:44;14.53;;;13.53;;
8102;SDS011;4094;49.948;11.574;2023-01-29T15:04:16;14.80;;;13.80;;
8102;SDS011;4094;49.948;11.574;2023-01-29T15:06:51;16.03;;;14.90;;
8102;SDS011;4094;49.948;11.574;2023-01-29T15:09:28;15.13;;;14.13;;
8102;SDS011;4094;49.948;11.574;2023-01-29T15:12:11;15.60;;;14.60;;
8102;SDS011;4094;49.948;11.574;2023-01-29T15:14:46;16.13;;;15.03;;
8102;SDS011;4094;49.948;11.574;2023-01-29T15:17:26;16.60;;;15.13;;
8102;SDS011;4094;49.948;11.574;2023-01-29T15:19:58;15.43;;;14.33;;
8102;SDS011;4094;49.948;11.574;2023-01-29T15:22:27;16.00;;;14.80;;
8102;SDS011;4094;49.948;11.574;2023-01-29T15:25:04;15.83;;;14.73;;
8102;SDS011;4094;49.948;11.574;2023-01-29T15:27:35;15.97;;;14.77;;
8102;SDS011;4094;49.948;11.574;2023-01-29T15:30:13;16.90;;;15.70;;
8102;SDS011;4094;49.948;11.574;2023-01-29T15:32:46;16.33;;;15.23;;
8102;SDS011;4094;49.948;11.574;2023-01-29T15:35:19;16.87;;;15.57;;
8102;SDS011;4094;49.948;11.574;2023-01-29T15:37:57;18.07;;;16.63;;
8102;SDS011;4094;49.948;11.574;2023-01-29T15:40:27;17.27;;;15.93;;
8102;SDS011;4094;49.948;11.574;2023-01-29T15:42:56;18.37;;;16.97;;
8102;SDS011;4094;49.948;11.574;2023-01-29T15:45:27;20.13;;;18.47;;